WetterOnline ( http://www.wetteronline.de )

Wetter aktuell Unterthingau

Aktuelles Wetter: Kempten (705m)

6-stündlich | Neueste Meldungen
Ortszeit Temperatur Wetter
So, 17.02. 7:00 -3.3° C wolkenlos
So, 17.02. 1:00 -1.9° C wolkenlos
Sa, 16.02. 19:00 1.9° C wolkenlos
Sa, 16.02. 13:00 11.7° C wolkenlos
Sa, 16.02. 7:00 -4.6° C wolkenlos
Sa, 16.02. 1:00 -3.0° C wolkenlos
Fr, 15.02. 19:00 2.5° C wolkenlos
Fr, 15.02. 13:00 9.7° C wolkenlos
Ortszeit Temperatur Wetter
So, 17.02. 12:00 9.6° C leicht bewölkt
So, 17.02. 11:50 9.6° C wolkig
So, 17.02. 11:40 8.8° C wolkig
So, 17.02. 11:30 8.1° C wolkig
So, 17.02. 11:20 8.1° C wolkig
So, 17.02. 11:10 7.8° C wolkig
So, 17.02. 11:00 6.9° C leicht bewölkt
So, 17.02. 10:30 5.2° C leicht bewölkt
So, 17.02. 10:00 3.7° C leicht bewölkt
So, 17.02. 9:30 2.4° C leicht bewölkt
So, 17.02. 9:00 1.7° C wolkenlos
Ortszeit Relative Feuchte Sichtweite
So, 17.02. 7:00 69% 65 km
So, 17.02. 1:00 69% 30 km
Sa, 16.02. 19:00 66% 30 km
Sa, 16.02. 13:00 25% 40 km
Sa, 16.02. 7:00 78% 45 km
Sa, 16.02. 1:00 78% 29 km
Fr, 15.02. 19:00 69% 4.8 km
Fr, 15.02. 13:00 33% 9 km
Ortszeit Relative Feuchte Sichtweite
So, 17.02. 12:00 30% 6 km
So, 17.02. 11:50 30% -
So, 17.02. 11:40 31% -
So, 17.02. 11:30 34% 4.2 km
So, 17.02. 11:20 34% -
So, 17.02. 11:10 34% -
So, 17.02. 11:00 33% 3.6 km
So, 17.02. 10:30 41% 5.0 km
So, 17.02. 10:00 43% 5.0 km
So, 17.02. 9:30 48% 9 km
So, 17.02. 9:00 50% 14 km
Ortszeit Niederschlagsmenge Niederschlagsart
So, 17.02. 7:00 0.0 l/m2 in 12 Std. -
So, 17.02. 1:00 0.0 l/m2 in 6 Std. -
Sa, 16.02. 19:00 0.0 l/m2 in 12 Std. -
Sa, 16.02. 13:00 0.0 l/m2 in 6 Std. -
Sa, 16.02. 7:00 0.0 l/m2 in 12 Std. -
Sa, 16.02. 1:00 0.0 l/m2 in 6 Std. -
Fr, 15.02. 19:00 0.0 l/m2 in 12 Std. -
Fr, 15.02. 13:00 0.0 l/m2 in 6 Std. -
Ortszeit Niederschlagsmenge Niederschlagsart
So, 17.02. 12:00 0.0 l/m2 in 1 Std. -
So, 17.02. 11:50 keine Meldung -
So, 17.02. 11:40 keine Meldung -
So, 17.02. 11:30 0.0 l/m2 in 1 Std. -
So, 17.02. 11:20 keine Meldung -
So, 17.02. 11:10 keine Meldung -
So, 17.02. 11:00 0.0 l/m2 in 1 Std. -
So, 17.02. 10:30 0.0 l/m2 in 1 Std. -
So, 17.02. 10:00 0.0 l/m2 in 1 Std. -
So, 17.02. 9:30 0.0 l/m2 in 1 Std. -
So, 17.02. 9:00 0.0 l/m2 in 1 Std. -
Ortszeit Stärke Spitze Richtung
km/h Bft. km/h Grad Sektor
So, 17.02. 7:00 7 2 18 130° SO
So, 17.02. 1:00 11 2 18 110° O
Sa, 16.02. 19:00 9 2 11 110° O
Sa, 16.02. 13:00 4 1 14 140° SO
Sa, 16.02. 7:00 7 2 14 110° O
Sa, 16.02. 1:00 7 2 15 110° O
Fr, 15.02. 19:00 0 0 14 - -
Fr, 15.02. 13:00 4 1 14 350° N
Ortszeit Stärke Spitze Richtung
km/h Bft. km/h Grad Sektor
So, 17.02. 12:00 4 1 18 160° S
So, 17.02. 11:50 4 1 - 160° S
So, 17.02. 11:40 7 2 - 180° S
So, 17.02. 11:30 7 2 14 140° SO
So, 17.02. 11:20 7 2 - 140° SO
So, 17.02. 11:10 7 2 - 160° S
So, 17.02. 11:00 7 2 18 150° SO
So, 17.02. 10:30 7 2 14 130° SO
So, 17.02. 10:00 7 2 17 140° SO
So, 17.02. 9:30 7 2 14 160° S
So, 17.02. 9:00 7 2 18 150° SO
Ortszeit Untergrenze Bedeckung Gattung
total tief tief mittel hoch
So, 17.02. 7:00 - 0/8 0/8 - - -
So, 17.02. 1:00 - 0/8 0/8 - - -
Sa, 16.02. 19:00 - 0/8 0/8 - - -
Sa, 16.02. 13:00 - 0/8 0/8 - - -
Sa, 16.02. 7:00 - 0/8 0/8 - - -
Sa, 16.02. 1:00 - 0/8 0/8 - - -
Fr, 15.02. 19:00 - 0/8 0/8 - - -
Fr, 15.02. 13:00 - 0/8 0/8 - - -
Ortszeit Bedeckungsgrad in Achtel und Wolkenuntergrenze
So, 17.02. 12:00 8(8700m)
So, 17.02. 11:50 8(8700m)
So, 17.02. 11:40 8(8700m)
So, 17.02. 11:30 8(8400m)
So, 17.02. 11:20 8(8400m)
So, 17.02. 11:10 8(8400m)
So, 17.02. 11:00 8(8400m)
So, 17.02. 10:30 6(8700m)
So, 17.02. 10:00 7(8700m)
So, 17.02. 9:30 4(8700m)
So, 17.02. 9:00 keine Wolken
Ortszeit Luftdruck NN (hPa) Tendenz (hPa in 3 Std.)
So, 17.02. 7:00 1032 - 0,1
So, 17.02. 1:00 1032 - 0,7
Sa, 16.02. 19:00 1031 + 0,3
Sa, 16.02. 13:00 1029 - 0,6
Sa, 16.02. 7:00 1035 + 0,4
Sa, 16.02. 1:00 1034 - 0,4
Fr, 15.02. 19:00 1033 - 0,2
Fr, 15.02. 13:00 1033 - 0,5
Ortszeit Luftdruck NN (hPa) Tendenz (hPa in 3 Std.)
So, 17.02. 12:00 1027 - 0,7
So, 17.02. 11:50 1027 keine Meldung
So, 17.02. 11:40 1027 keine Meldung
So, 17.02. 11:30 1028 - 0,5
So, 17.02. 11:20 1028 keine Meldung
So, 17.02. 11:10 1028 keine Meldung
So, 17.02. 11:00 1028 - 0,4
So, 17.02. 10:30 1029 - 0,1
So, 17.02. 10:00 1029 0,0
So, 17.02. 9:30 1030 + 0,2
So, 17.02. 9:00 1030 + 0,3
Ortszeit Schneehöhe (cm)
So, 17.02. 7:00 13
So, 17.02. 1:00 13
Sa, 16.02. 19:00 13
Sa, 16.02. 13:00 15
Sa, 16.02. 7:00 15
Sa, 16.02. 1:00 15
Fr, 15.02. 19:00 14
Fr, 15.02. 13:00 16
Ortszeit Schneehöhe (cm)
So, 17.02. 12:00 13
So, 17.02. 11:50 13
So, 17.02. 11:40 13
So, 17.02. 11:30 13
So, 17.02. 11:20 13
So, 17.02. 11:10 13
So, 17.02. 11:00 13
So, 17.02. 10:30 13
So, 17.02. 10:00 13
So, 17.02. 9:30 13
So, 17.02. 9:00 13
Link zu dieser Seite / Seite empfehlen

Das Wetter in ...